< < Back
Terminal Aerodrome Forecast


Current Version              Previous Versions:   1  2  3  4  5  6  7  8  9  

Terminal Aerodrome Forecast

669
FTUS42 KCHS 221700
TAFSAV
TAF
KSAV 221723Z 2218/2318 30005KT P6SM FEW050
     FM222100 18007KT P6SM SCT060
     FM230100 VRB03KT P6SM FEW100=



Latest METAR

529
SAUS80 KWBC 222100 CCA
MTRSAV
METAR KSAV 222053Z 33007KT 10SM FEW060 SCT250 37/20 A2996 RMK AO2 SLP146
TCU DSNT NE MOV E T03720200 56022


USA.gov is the U.S. government's official web portal to all federal, state and local government web resources and services.